Time;durP1;ratioP1;P1;durP2;ratioP2;P2;SDS_P1;SDS_P2;PMS_P1;PMS_P2;Temp;Humidity;BMP_temperature;BMP_pressure;BME280_temperature;BME280_humidity;BME280_pressure;Samples;Min_cycle;Max_cycle;Signal;HPM_P1;HPM_P2
2022/06/16 00:00:19;;;;;;;6.30;2.17;;;;;;;;;;5019042;28;88290;-65
2022/06/16 00:02:47;;;;;;;4.95;2.10;;;;;;;;;;5026643;28;89505;-65
2022/06/16 00:05:15;;;;;;;5.50;2.10;;;;;;;;;;5034521;27;90852;-65
2022/06/16 00:07:42;;;;;;;4.15;2.22;;;;;;;;;;5018409;27;88014;-66
2022/06/16 00:10:09;;;;;;;4.65;2.00;;;;;;;;;;5036963;27;89111;-66
2022/06/16 00:12:36;;;;;;;4.05;1.98;;;;;;;;;;5036887;28;90072;-66
2022/06/16 00:15:03;;;;;;;4.15;1.83;;;;;;;;;;5019969;27;88801;-65
2022/06/16 00:17:29;;;;;;;3.13;1.90;;;;;;;;;;5009502;28;89811;-65
2022/06/16 00:19:55;;;;;;;4.00;2.35;;;;;;;;;;5018304;28;89670;-67
2022/06/16 00:22:22;;;;;;;6.05;1.83;;;;;;;;;;5021612;27;89819;-66
2022/06/16 00:24:48;;;;;;;5.72;1.95;;;;;;;;;;5026948;27;89062;-66
2022/06/16 00:27:14;;;;;;;3.75;2.15;;;;;;;;;;5040584;27;87963;-67
2022/06/16 00:29:41;;;;;;;11.90;2.25;;;;;;;;;;5027841;27;88786;-67
2022/06/16 00:32:07;;;;;;;5.43;2.40;;;;;;;;;;5018030;28;88732;-67
2022/06/16 00:34:34;;;;;;;5.22;2.03;;;;;;;;;;5025678;28;89111;-67
2022/06/16 00:37:00;;;;;;;9.48;2.15;;;;;;;;;;5033264;27;88978;-67
2022/06/16 00:39:26;;;;;;;5.75;2.60;;;;;;;;;;5020294;27;88164;-67
2022/06/16 00:41:53;;;;;;;5.75;1.92;;;;;;;;;;5036242;28;88403;-67
2022/06/16 00:44:31;;;;;;;4.38;1.98;;;;;;;;;;5024531;27;88812;-65
2022/06/16 00:46:57;;;;;;;2.72;1.70;;;;;;;;;;5023935;27;87217;-66
2022/06/16 00:49:24;;;;;;;4.80;2.45;;;;;;;;;;5018749;28;88026;-66
2022/06/16 00:51:54;;;;;;;3.15;1.92;;;;;;;;;;5014324;28;90151;-66
2022/06/16 00:54:24;;;;;;;4.07;2.17;;;;;;;;;;5029438;27;88845;-66
2022/06/16 00:56:52;;;;;;;9.05;2.03;;;;;;;;;;5019781;27;90102;-69
2022/06/16 00:59:19;;;;;;;4.10;2.10;;;;;;;;;;5015291;28;87937;-69
2022/06/16 01:01:46;;;;;;;8.43;2.20;;;;;;;;;;5019745;28;88718;-69
2022/06/16 01:07:00;;;;;;;4.35;2.17;;;;;;;;;;5027007;27;88050;-64
2022/06/16 01:09:33;;;;;;;4.40;2.05;;;;;;;;;;5018113;28;89939;-66
2022/06/16 01:15:05;;;;;;;3.97;2.10;;;;;;;;;;5024448;28;89508;-66
2022/06/16 01:17:37;;;;;;;4.45;2.28;;;;;;;;;;5013965;28;89179;-66
2022/06/16 01:20:20;;;;;;;5.72;2.00;;;;;;;;;;5039225;27;88662;-66
2022/06/16 01:22:56;;;;;;;8.48;2.17;;;;;;;;;;5020456;28;89809;-65
2022/06/16 01:25:51;;;;;;;9.35;2.30;;;;;;;;;;5018906;28;89831;-66
2022/06/16 01:28:25;;;;;;;3.72;1.80;;;;;;;;;;5039773;27;89030;-66
2022/06/16 01:30:58;;;;;;;10.77;2.08;;;;;;;;;;5028662;28;89434;-65
2022/06/16 01:33:24;;;;;;;4.68;2.13;;;;;;;;;;5018905;28;89002;-66
2022/06/16 01:35:54;;;;;;;6.57;1.83;;;;;;;;;;5017724;28;89763;-66
2022/06/16 01:38:24;;;;;;;6.55;2.10;;;;;;;;;;5019315;28;87583;-66
2022/06/16 01:40:50;;;;;;;;;;;;;;;;;;5021460;28;88839;-66
2022/06/16 01:43:34;;;;;;;2.97;1.85;;;;;;;;;;5019406;28;119378;-66
2022/06/16 01:46:16;;;;;;;7.40;2.20;;;;;;;;;;5017993;28;90274;-67
2022/06/16 01:48:44;;;;;;;5.53;1.98;;;;;;;;;;4999443;28;88062;-66
2022/06/16 01:51:16;;;;;;;4.45;2.40;;;;;;;;;;5019985;28;88490;-70
2022/06/16 01:53:46;;;;;;;7.80;2.53;;;;;;;;;;5020812;28;90051;-69
2022/06/16 01:56:44;;;;;;;2.90;2.15;;;;;;;;;;5031442;27;88274;-69
2022/06/16 01:59:16;;;;;;;8.32;2.30;;;;;;;;;;5006032;28;88962;-69
2022/06/16 02:01:45;;;;;;;3.72;1.98;;;;;;;;;;5016331;28;88760;-70
2022/06/16 02:04:15;;;;;;;2.38;1.85;;;;;;;;;;5041247;27;88947;-67
2022/06/16 02:06:43;;;;;;;6.60;2.30;;;;;;;;;;5016146;28;87979;-68
2022/06/16 02:09:11;;;;;;;7.50;2.35;;;;;;;;;;5015649;28;88141;-68
2022/06/16 02:11:38;;;;;;;3.67;2.15;;;;;;;;;;5004936;28;88897;-68
2022/06/16 02:14:06;;;;;;;9.32;2.00;;;;;;;;;;5020915;28;89105;-65
2022/06/16 02:16:34;;;;;;;13.35;2.40;;;;;;;;;;5027909;28;89016;-64
2022/06/16 02:19:01;;;;;;;4.32;2.00;;;;;;;;;;5034907;27;88183;-64
2022/06/16 02:21:35;;;;;;;6.55;2.30;;;;;;;;;;5015252;28;88889;-64
2022/06/16 02:24:05;;;;;;;5.93;2.45;;;;;;;;;;5027412;27;88229;-64
2022/06/16 02:26:32;;;;;;;4.65;1.98;;;;;;;;;;5028469;27;88384;-65
2022/06/16 02:28:59;;;;;;;3.92;1.70;;;;;;;;;;5019184;28;88724;-65
2022/06/16 02:31:35;;;;;;;6.30;1.90;;;;;;;;;;5018797;28;87968;-65
2022/06/16 02:34:01;;;;;;;3.63;1.98;;;;;;;;;;5017389;28;89014;-65
2022/06/16 02:36:47;;;;;;;2.13;1.55;;;;;;;;;;5014389;28;88868;-64
2022/06/16 02:39:27;;;;;;;4.50;1.77;;;;;;;;;;4997629;28;89657;-65
2022/06/16 02:42:01;;;;;;;4.95;2.30;;;;;;;;;;5022707;28;90285;-64
2022/06/16 02:44:46;;;;;;;9.18;2.05;;;;;;;;;;5037169;27;89128;-65
2022/06/16 02:47:21;;;;;;;3.72;2.20;;;;;;;;;;5028688;28;88687;-64
2022/06/16 02:49:53;;;;;;;6.57;1.90;;;;;;;;;;5020497;28;88824;-64
2022/06/16 02:52:28;;;;;;;5.80;1.98;;;;;;;;;;5002246;28;88966;-65
2022/06/16 02:55:17;;;;;;;3.10;2.20;;;;;;;;;;5025110;28;88682;-67
2022/06/16 02:57:46;;;;;;;4.60;2.10;;;;;;;;;;5024285;28;88795;-70
2022/06/16 03:00:15;;;;;;;4.28;1.92;;;;;;;;;;5012191;28;88633;-70
2022/06/16 03:02:42;;;;;;;2.85;1.65;;;;;;;;;;5033402;27;89931;-69
2022/06/16 03:05:10;;;;;;;8.68;2.03;;;;;;;;;;5030782;28;88170;-69
2022/06/16 03:07:36;;;;;;;5.28;1.98;;;;;;;;;;5022252;27;88743;-69
2022/06/16 03:10:06;;;;;;;6.00;2.08;;;;;;;;;;5013628;28;88861;-69
2022/06/16 03:12:32;;;;;;;7.05;1.83;;;;;;;;;;5016527;28;88815;-69
2022/06/16 03:14:59;;;;;;;4.95;2.17;;;;;;;;;;5014138;28;89445;-70
2022/06/16 03:17:25;;;;;;;2.80;1.80;;;;;;;;;;5032009;28;88044;-68
2022/06/16 03:19:51;;;;;;;4.43;2.35;;;;;;;;;;5035940;28;88588;-70
2022/06/16 03:22:20;;;;;;;5.40;2.20;;;;;;;;;;5027103;27;88667;-70
2022/06/16 03:24:46;;;;;;;4.32;1.88;;;;;;;;;;5016303;28;88079;-70
2022/06/16 03:27:13;;;;;;;5.28;2.22;;;;;;;;;;5036154;27;88726;-69
2022/06/16 03:29:39;;;;;;;4.03;2.13;;;;;;;;;;5024720;27;88872;-68
2022/06/16 03:32:06;;;;;;;5.68;1.80;;;;;;;;;;5000998;28;89323;-68
2022/06/16 03:34:32;;;;;;;6.78;2.40;;;;;;;;;;5018838;28;89048;-68
2022/06/16 03:36:59;;;;;;;4.45;2.00;;;;;;;;;;5026262;28;87959;-68
2022/06/16 03:39:25;;;;;;;8.27;2.28;;;;;;;;;;5016921;28;88784;-71
2022/06/16 03:41:51;;;;;;;6.43;2.30;;;;;;;;;;5017502;28;88926;-71
2022/06/16 03:44:18;;;;;;;7.07;2.10;;;;;;;;;;5016707;28;87994;-69
2022/06/16 03:46:44;;;;;;;19.83;2.63;;;;;;;;;;5020556;28;89374;-62
2022/06/16 03:49:11;;;;;;;5.00;1.88;;;;;;;;;;5017756;28;88962;-63
2022/06/16 03:51:37;;;;;;;2.50;1.80;;;;;;;;;;5023822;28;89787;-62
2022/06/16 03:54:03;;;;;;;5.22;2.10;;;;;;;;;;5035889;27;89517;-63
2022/06/16 03:56:29;;;;;;;17.98;1.85;;;;;;;;;;5029299;28;88097;-63
2022/06/16 03:58:56;;;;;;;2.55;1.83;;;;;;;;;;5029334;28;89935;-63
2022/06/16 04:01:23;;;;;;;4.72;1.55;;;;;;;;;;5020900;28;89389;-62
2022/06/16 04:04:02;;;;;;;4.88;1.90;;;;;;;;;;5030362;28;88836;-63
2022/06/16 04:06:30;;;;;;;4.95;1.75;;;;;;;;;;5034333;27;89879;-62
2022/06/16 04:08:57;;;;;;;3.63;2.00;;;;;;;;;;5013993;28;88361;-64
2022/06/16 04:11:30;;;;;;;4.88;2.13;;;;;;;;;;5014240;28;88017;-64
2022/06/16 04:14:00;;;;;;;2.72;1.45;;;;;;;;;;5012429;28;89363;-65
2022/06/16 04:16:27;;;;;;;4.57;1.50;;;;;;;;;;5014769;28;90526;-64
2022/06/16 04:18:54;;;;;;;7.05;1.65;;;;;;;;;;5036867;28;89634;-65
2022/06/16 04:21:20;;;;;;;4.13;1.73;;;;;;;;;;5034380;27;89820;-64
2022/06/16 04:23:46;;;;;;;3.35;1.75;;;;;;;;;;5023558;28;88864;-64
2022/06/16 04:26:13;;;;;;;6.18;1.45;;;;;;;;;;5035893;27;89228;-64
2022/06/16 04:28:39;;;;;;;3.58;1.42;;;;;;;;;;5030373;27;89301;-64
2022/06/16 04:31:05;;;;;;;1.42;1.35;;;;;;;;;;5026458;28;89118;-65
2022/06/16 04:33:32;;;;;;;3.97;1.52;;;;;;;;;;5038067;28;89094;-65
2022/06/16 04:35:58;;;;;;;2.40;1.70;;;;;;;;;;5028518;27;88850;-65
2022/06/16 04:38:26;;;;;;;2.78;1.55;;;;;;;;;;5025160;27;89574;-65
2022/06/16 04:40:52;;;;;;;3.65;1.73;;;;;;;;;;5023763;27;90051;-65
2022/06/16 04:43:19;;;;;;;5.53;1.88;;;;;;;;;;5018131;28;88029;-65
2022/06/16 04:45:45;;;;;;;5.47;1.85;;;;;;;;;;5022721;28;88799;-65
2022/06/16 04:48:12;;;;;;;2.05;1.70;;;;;;;;;;5040245;27;88786;-65
2022/06/16 04:50:40;;;;;;;2.40;1.58;;;;;;;;;;5025432;27;88145;-63
2022/06/16 04:53:06;;;;;;;2.75;1.63;;;;;;;;;;5024373;28;88926;-63
2022/06/16 04:55:32;;;;;;;6.57;1.88;;;;;;;;;;5023363;27;88921;-63
2022/06/16 04:57:58;;;;;;;6.53;1.92;;;;;;;;;;5022836;27;88645;-63
2022/06/16 05:00:25;;;;;;;3.00;1.88;;;;;;;;;;5018471;28;89110;-65
2022/06/16 05:02:52;;;;;;;8.10;1.88;;;;;;;;;;5024182;28;89065;-66
2022/06/16 05:05:18;;;;;;;4.45;2.00;;;;;;;;;;5019747;28;89115;-65
2022/06/16 05:07:44;;;;;;;2.70;1.70;;;;;;;;;;5024660;27;88083;-64
2022/06/16 05:10:11;;;;;;;6.65;2.40;;;;;;;;;;5013201;28;88163;-69
2022/06/16 05:12:38;;;;;;;9.85;2.17;;;;;;;;;;5014420;28;87931;-70
2022/06/16 05:15:04;;;;;;;4.43;2.20;;;;;;;;;;5018100;28;89073;-65
2022/06/16 05:17:31;;;;;;;7.93;3.13;;;;;;;;;;5020193;28;88092;-65
2022/06/16 05:19:57;;;;;;;9.98;3.20;;;;;;;;;;5022464;28;88765;-75
2022/06/16 05:22:24;;;;;;;4.68;2.72;;;;;;;;;;5018072;28;87699;-74
2022/06/16 05:24:50;;;;;;;3.17;2.70;;;;;;;;;;5026367;28;88420;-74
2022/06/16 05:27:16;;;;;;;4.35;2.50;;;;;;;;;;5019723;27;89059;-74
2022/06/16 05:29:43;;;;;;;6.65;2.88;;;;;;;;;;5019078;28;88768;-73
2022/06/16 05:32:09;;;;;;;6.85;2.75;;;;;;;;;;5016496;28;89543;-73
2022/06/16 05:34:36;;;;;;;11.18;2.80;;;;;;;;;;5001666;28;89293;-74
2022/06/16 05:37:03;;;;;;;6.13;3.03;;;;;;;;;;5023786;28;89315;-74
2022/06/16 05:39:29;;;;;;;8.02;3.08;;;;;;;;;;5036995;28;88552;-72
2022/06/16 05:41:56;;;;;;;10.13;2.80;;;;;;;;;;5041450;28;88955;-74
2022/06/16 05:44:22;;;;;;;7.97;2.67;;;;;;;;;;5026140;28;89171;-73
2022/06/16 05:46:48;;;;;;;5.93;3.25;;;;;;;;;;5023188;28;88274;-63
2022/06/16 05:49:18;;;;;;;10.38;3.10;;;;;;;;;;5018873;28;88280;-63
2022/06/16 05:51:45;;;;;;;7.53;2.80;;;;;;;;;;4999257;28;88950;-64
2022/06/16 05:54:11;;;;;;;13.10;3.20;;;;;;;;;;5015507;28;89914;-67
2022/06/16 05:56:37;;;;;;;12.90;2.70;;;;;;;;;;5016015;28;89224;-64
2022/06/16 05:59:04;;;;;;;8.88;3.33;;;;;;;;;;5014025;28;89648;-64
2022/06/16 06:01:36;;;;;;;4.82;2.28;;;;;;;;;;5016822;28;89534;-64
2022/06/16 06:04:02;;;;;;;5.60;2.67;;;;;;;;;;5021281;28;88332;-64
2022/06/16 06:06:29;;;;;;;3.10;1.95;;;;;;;;;;5018580;28;89399;-64
2022/06/16 06:17:15;;;;;;;4.97;2.03;;;;;;;;;;5016792;28;88158;-65
2022/06/16 06:19:42;;;;;;;4.97;2.03;;;;;;;;;;5014939;28;89085;-64
2022/06/16 06:22:13;;;;;;;4.60;2.10;;;;;;;;;;5016473;28;89096;-64
2022/06/16 06:24:42;;;;;;;8.70;2.35;;;;;;;;;;5006723;28;88435;-64
2022/06/16 06:27:11;;;;;;;3.17;1.95;;;;;;;;;;5016975;28;88733;-64
2022/06/16 06:29:37;;;;;;;13.90;2.50;;;;;;;;;;5015677;28;88031;-64
2022/06/16 06:32:03;;;;;;;5.13;2.20;;;;;;;;;;5018165;28;89832;-64
2022/06/16 06:34:30;;;;;;;7.28;1.95;;;;;;;;;;5017989;28;88673;-64
2022/06/16 06:36:56;;;;;;;4.50;1.65;;;;;;;;;;5013880;28;87673;-65
2022/06/16 06:39:22;;;;;;;7.22;1.85;;;;;;;;;;5011538;28;88697;-64
2022/06/16 06:41:49;;;;;;;5.35;1.80;;;;;;;;;;5014186;28;89106;-64
2022/06/16 06:44:15;;;;;;;5.40;2.05;;;;;;;;;;5013594;28;89573;-64
2022/06/16 06:46:41;;;;;;;4.57;1.95;;;;;;;;;;5015981;28;89341;-65
2022/06/16 06:49:08;;;;;;;5.18;1.50;;;;;;;;;;5023921;28;89086;-64
2022/06/16 06:51:35;;;;;;;3.22;1.85;;;;;;;;;;5018178;27;89567;-64
2022/06/16 06:54:01;;;;;;;3.60;1.83;;;;;;;;;;5010839;28;89081;-64
2022/06/16 06:56:29;;;;;;;3.00;1.60;;;;;;;;;;5017267;28;88233;-64
2022/06/16 06:58:56;;;;;;;4.40;1.70;;;;;;;;;;5013837;28;88553;-66
2022/06/16 07:01:22;;;;;;;6.15;2.05;;;;;;;;;;5012754;28;87467;-63
2022/06/16 07:03:50;;;;;;;2.75;1.58;;;;;;;;;;5017262;28;89874;-63
2022/06/16 07:06:17;;;;;;;4.10;1.92;;;;;;;;;;5016433;28;88754;-63
2022/06/16 07:08:44;;;;;;;12.15;2.33;;;;;;;;;;5015964;28;89841;-63
2022/06/16 07:11:10;;;;;;;2.38;1.50;;;;;;;;;;5040506;27;87927;-63
2022/06/16 07:13:37;;;;;;;4.82;1.60;;;;;;;;;;5038055;27;89130;-63
2022/06/16 07:16:04;;;;;;;6.13;1.52;;;;;;;;;;5024143;27;88274;-63
2022/06/16 07:18:30;;;;;;;8.80;2.35;;;;;;;;;;5029495;27;89152;-63
2022/06/16 07:20:56;;;;;;;8.52;2.20;;;;;;;;;;5034222;27;88964;-64
2022/06/16 07:23:23;;;;;;;3.92;1.83;;;;;;;;;;5021190;27;88056;-64
2022/06/16 07:25:50;;;;;;;5.30;1.70;;;;;;;;;;5017286;28;88599;-64
2022/06/16 07:28:17;;;;;;;3.88;1.60;;;;;;;;;;5013841;27;88850;-63
2022/06/16 07:30:43;;;;;;;4.95;1.70;;;;;;;;;;5028516;27;88910;-68
2022/06/16 07:33:12;;;;;;;3.25;1.65;;;;;;;;;;5034532;27;90025;-68
2022/06/16 07:35:41;;;;;;;3.20;1.23;;;;;;;;;;5038056;27;87968;-68
2022/06/16 07:38:08;;;;;;;6.47;1.75;;;;;;;;;;5035683;27;88877;-68
2022/06/16 07:40:34;;;;;;;8.93;1.92;;;;;;;;;;5029865;28;89137;-68
2022/06/16 07:43:00;;;;;;;5.40;1.80;;;;;;;;;;5037849;27;88007;-68
2022/06/16 07:45:29;;;;;;;3.78;1.75;;;;;;;;;;5023640;27;88595;-68
2022/06/16 07:47:57;;;;;;;4.07;1.42;;;;;;;;;;5029715;28;89814;-68
2022/06/16 07:50:24;;;;;;;5.05;1.60;;;;;;;;;;5029610;27;89427;-68
2022/06/16 07:52:50;;;;;;;5.80;1.42;;;;;;;;;;5028806;28;88249;-67
2022/06/16 07:55:18;;;;;;;3.97;1.65;;;;;;;;;;5017598;28;87996;-68
2022/06/16 07:57:46;;;;;;;6.93;1.52;;;;;;;;;;5016895;28;88806;-69
2022/06/16 08:00:14;;;;;;;4.88;1.70;;;;;;;;;;5018619;28;88822;-68
2022/06/16 08:02:41;;;;;;;3.03;1.50;;;;;;;;;;5034186;28;89423;-68
2022/06/16 08:05:10;;;;;;;6.15;1.65;;;;;;;;;;5037502;27;88985;-68
2022/06/16 08:07:36;;;;;;;6.45;1.90;;;;;;;;;;5034874;28;89166;-68
2022/06/16 08:10:04;;;;;;;3.67;1.17;;;;;;;;;;5007931;28;89021;-68
2022/06/16 08:12:30;;;;;;;3.25;1.58;;;;;;;;;;5037553;27;89538;-68
2022/06/16 08:14:57;;;;;;;2.63;1.30;;;;;;;;;;5024210;27;88374;-68
2022/06/16 08:17:25;;;;;;;7.93;1.83;;;;;;;;;;5027488;28;88255;-68
2022/06/16 08:19:52;;;;;;;3.25;1.35;;;;;;;;;;5035848;27;87963;-68
2022/06/16 08:22:19;;;;;;;2.30;1.50;;;;;;;;;;5032487;28;88975;-68
2022/06/16 08:24:47;;;;;;;8.23;1.50;;;;;;;;;;5028282;28;89723;-69
2022/06/16 08:27:14;;;;;;;5.15;1.70;;;;;;;;;;5016943;28;89312;-68
2022/06/16 08:29:41;;;;;;;4.20;1.50;;;;;;;;;;5014070;28;88744;-66
2022/06/16 08:32:08;;;;;;;7.25;1.67;;;;;;;;;;5035470;28;89368;-71
2022/06/16 08:34:36;;;;;;;3.83;1.52;;;;;;;;;;5016814;27;88802;-71
2022/06/16 08:37:03;;;;;;;1.92;1.10;;;;;;;;;;5025669;28;88111;-70
2022/06/16 08:39:29;;;;;;;5.63;1.42;;;;;;;;;;5037680;27;88183;-70
2022/06/16 08:42:08;;;;;;;5.18;1.85;;;;;;;;;;5029348;27;89761;-70
2022/06/16 08:44:49;;;;;;;8.33;2.33;;;;;;;;;;5019299;28;88810;-67
2022/06/16 08:47:21;;;;;;;10.98;1.88;;;;;;;;;;5020889;28;90450;-67
2022/06/16 08:49:54;;;;;;;2.13;1.40;;;;;;;;;;5020659;27;88174;-68
2022/06/16 08:52:25;;;;;;;9.13;1.50;;;;;;;;;;5020678;28;88692;-67
2022/06/16 08:54:51;;;;;;;7.03;1.65;;;;;;;;;;5017088;28;89449;-68
2022/06/16 08:57:25;;;;;;;3.33;1.35;;;;;;;;;;5011679;28;89399;-67
2022/06/16 08:59:53;;;;;;;5.40;1.48;;;;;;;;;;5021265;28;88299;-67
2022/06/16 09:02:22;;;;;;;3.90;1.20;;;;;;;;;;5019590;28;88051;-68
2022/06/16 09:04:50;;;;;;;2.83;1.35;;;;;;;;;;5017608;28;88694;-67
2022/06/16 09:07:19;;;;;;;3.00;1.38;;;;;;;;;;5020910;28;88893;-67
2022/06/16 09:10:15;;;;;;;5.30;1.40;;;;;;;;;;5029898;27;88070;-66
2022/06/16 09:12:53;;;;;;;6.80;1.35;;;;;;;;;;5034197;28;88876;-66
2022/06/16 09:15:21;;;;;;;2.28;1.20;;;;;;;;;;5036842;27;88747;-66
2022/06/16 09:17:53;;;;;;;3.80;1.55;;;;;;;;;;5019951;28;88719;-66
2022/06/16 09:20:52;;;;;;;5.70;1.38;;;;;;;;;;5022138;28;89015;-66
2022/06/16 09:23:25;;;;;;;2.03;0.93;;;;;;;;;;5038748;28;88165;-66
2022/06/16 09:25:52;;;;;;;2.92;1.15;;;;;;;;;;5030242;27;89927;-66
2022/06/16 09:28:18;;;;;;;5.47;1.42;;;;;;;;;;5037453;28;89164;-66
2022/06/16 09:30:46;;;;;;;1.92;1.27;;;;;;;;;;5037717;27;87574;-66
2022/06/16 09:33:16;;;;;;;3.20;1.63;;;;;;;;;;5033568;27;87948;-66
2022/06/16 09:35:59;;;;;;;2.92;1.05;;;;;;;;;;5020297;28;89754;-66
2022/06/16 09:38:25;;;;;;;1.63;1.40;;;;;;;;;;5039519;28;88995;-66
2022/06/16 09:40:55;;;;;;;2.95;1.42;;;;;;;;;;5038219;27;90666;-66
2022/06/16 09:43:31;;;;;;;4.53;1.42;;;;;;;;;;5040401;27;88843;-67
2022/06/16 09:46:03;;;;;;;1.67;1.13;;;;;;;;;;5031960;27;88668;-66
2022/06/16 09:48:36;;;;;;;5.03;1.25;;;;;;;;;;5027566;27;88291;-66
2022/06/16 09:51:08;;;;;;;2.22;1.08;;;;;;;;;;5018567;28;88201;-66
2022/06/16 09:53:34;;;;;;;2.35;1.13;;;;;;;;;;5032530;28;88704;-66
2022/06/16 09:56:07;;;;;;;1.20;1.10;;;;;;;;;;5034636;27;87901;-66
2022/06/16 09:58:40;;;;;;;1.75;1.30;;;;;;;;;;5027315;27;87933;-66
2022/06/16 10:01:08;;;;;;;2.45;1.00;;;;;;;;;;5019075;28;87963;-66
2022/06/16 10:03:46;;;;;;;2.22;1.20;;;;;;;;;;5027086;28;90069;-66
2022/06/16 10:06:28;;;;;;;2.38;1.20;;;;;;;;;;5025884;27;88109;-70
2022/06/16 10:09:04;;;;;;;2.58;1.52;;;;;;;;;;5034471;27;89047;-68
2022/06/16 10:11:48;;;;;;;2.55;1.33;;;;;;;;;;5039269;27;88015;-67
2022/06/16 10:14:20;;;;;;;4.10;1.30;;;;;;;;;;5017976;28;88742;-68
2022/06/16 10:16:55;;;;;;;5.35;1.60;;;;;;;;;;5007677;27;89638;-69
2022/06/16 10:19:23;;;;;;;4.88;1.63;;;;;;;;;;5020172;28;89740;-69
2022/06/16 10:21:50;;;;;;;7.60;1.60;;;;;;;;;;5012016;28;88959;-68
2022/06/16 10:24:17;;;;;;;3.65;1.50;;;;;;;;;;5012910;28;88936;-68
2022/06/16 10:26:44;;;;;;;3.80;1.50;;;;;;;;;;5037232;27;87964;-69
2022/06/16 10:29:22;;;;;;;3.97;1.50;;;;;;;;;;5041115;27;88812;-68
2022/06/16 10:31:49;;;;;;;4.32;1.67;;;;;;;;;;5019671;27;88109;-69
2022/06/16 10:34:17;;;;;;;3.25;1.52;;;;;;;;;;5014035;28;91171;-69
2022/06/16 10:36:50;;;;;;;3.78;1.60;;;;;;;;;;5014750;28;88984;-68
2022/06/16 10:39:19;;;;;;;6.50;1.67;;;;;;;;;;5012924;28;88014;-68
2022/06/16 10:41:53;;;;;;;1.50;1.40;;;;;;;;;;5015553;28;89085;-70
2022/06/16 10:44:22;;;;;;;2.45;1.27;;;;;;;;;;5023177;27;88564;-66
2022/06/16 10:46:55;;;;;;;5.80;1.65;;;;;;;;;;5011670;28;88801;-68
2022/06/16 10:49:30;;;;;;;5.50;1.63;;;;;;;;;;5016122;28;90362;-68
2022/06/16 10:52:09;;;;;;;2.95;1.50;;;;;;;;;;5020581;28;89501;-68
2022/06/16 10:54:42;;;;;;;7.78;1.60;;;;;;;;;;5017674;28;88706;-68
2022/06/16 10:57:13;;;;;;;7.80;1.75;;;;;;;;;;5016531;28;89365;-68
2022/06/16 10:59:42;;;;;;;6.00;1.27;;;;;;;;;;5017479;28;88462;-68
2022/06/16 11:02:16;;;;;;;5.05;1.60;;;;;;;;;;5019668;28;88848;-68
2022/06/16 11:04:44;;;;;;;5.28;1.70;;;;;;;;;;5012889;28;88889;-68
2022/06/16 11:07:17;;;;;;;5.85;1.40;;;;;;;;;;5013720;28;88195;-67
2022/06/16 11:09:44;;;;;;;6.57;1.88;;;;;;;;;;5017376;28;88959;-68
2022/06/16 11:12:15;;;;;;;3.53;1.70;;;;;;;;;;5016884;28;88394;-68
2022/06/16 11:14:47;;;;;;;6.75;1.77;;;;;;;;;;5028916;28;88028;-68
2022/06/16 11:17:27;;;;;;;3.60;1.80;;;;;;;;;;5011038;28;89049;-68
2022/06/16 11:20:00;;;;;;;8.20;1.85;;;;;;;;;;5008094;28;88774;-68
2022/06/16 11:22:35;;;;;;;3.67;1.63;;;;;;;;;;5011390;28;89256;-68
2022/06/16 11:25:05;;;;;;;4.40;1.35;;;;;;;;;;5016198;28;89347;-68
2022/06/16 11:27:31;;;;;;;;;;;;;;;;;;5028901;28;88347;-68
2022/06/16 11:29:57;;;;;;;5.20;1.75;;;;;;;;;;5015404;28;118933;-68
2022/06/16 11:32:27;;;;;;;5.40;1.75;;;;;;;;;;5022770;28;89300;-68
2022/06/16 11:34:54;;;;;;;1.60;1.20;;;;;;;;;;5040298;27;88167;-69
2022/06/16 11:37:31;;;;;;;7.03;1.85;;;;;;;;;;5009785;27;90248;-68
2022/06/16 11:40:04;;;;;;;3.72;1.73;;;;;;;;;;5005786;28;88014;-68
2022/06/16 11:42:49;;;;;;;3.65;1.60;;;;;;;;;;5020048;28;89044;-68
2022/06/16 11:45:33;;;;;;;3.33;1.70;;;;;;;;;;5012840;28;89832;-69
2022/06/16 11:48:17;;;;;;;2.58;1.30;;;;;;;;;;5009470;28;88955;-68
2022/06/16 11:50:43;;;;;;;6.32;1.50;;;;;;;;;;5017168;28;88525;-68
2022/06/16 11:53:09;;;;;;;3.03;1.50;;;;;;;;;;5015155;28;88988;-68
2022/06/16 11:55:41;;;;;;;5.63;1.70;;;;;;;;;;5010022;28;89672;-68
2022/06/16 11:58:25;;;;;;;5.35;1.63;;;;;;;;;;5025905;28;88926;-68
2022/06/16 12:00:57;;;;;;;10.88;1.90;;;;;;;;;;5015594;28;88069;-62
2022/06/16 12:03:49;;;;;;;2.95;1.63;;;;;;;;;;5016228;28;87512;-66
2022/06/16 12:06:16;;;;;;;4.45;1.90;;;;;;;;;;5023682;28;89968;-64
2022/06/16 12:08:43;;;;;;;5.90;1.98;;;;;;;;;;5035427;28;88930;-63
2022/06/16 12:11:25;;;;;;;10.57;1.90;;;;;;;;;;5026588;27;88727;-65
2022/06/16 12:14:20;;;;;;;4.45;2.03;;;;;;;;;;5016996;28;89326;-76
2022/06/16 12:16:56;;;;;;;8.13;1.60;;;;;;;;;;5024976;28;90916;-66
2022/06/16 12:19:40;;;;;;;7.32;2.20;;;;;;;;;;5012556;28;88908;-66
2022/06/16 12:22:27;;;;;;;11.65;2.20;;;;;;;;;;5040752;27;88820;-66
2022/06/16 12:25:04;;;;;;;8.35;2.42;;;;;;;;;;5026858;27;89603;-66
2022/06/16 12:27:48;;;;;;;15.00;2.20;;;;;;;;;;5035440;27;89974;-66
2022/06/16 12:30:16;;;;;;;9.93;2.25;;;;;;;;;;5020186;28;88128;-66
2022/06/16 12:32:58;;;;;;;17.77;2.17;;;;;;;;;;5040087;27;88214;-67
2022/06/16 12:35:31;;;;;;;6.47;2.05;;;;;;;;;;5029695;27;88142;-67
2022/06/16 12:38:03;;;;;;;12.43;1.95;;;;;;;;;;5019969;28;88776;-67
2022/06/16 12:40:34;;;;;;;5.75;1.90;;;;;;;;;;5033685;27;89637;-67
2022/06/16 12:43:03;;;;;;;7.20;1.77;;;;;;;;;;5022455;28;89117;-67
2022/06/16 12:45:33;;;;;;;4.25;1.80;;;;;;;;;;5025340;27;88549;-67
2022/06/16 12:48:09;;;;;;;7.28;2.13;;;;;;;;;;5020021;28;89231;-67
2022/06/16 12:50:45;;;;;;;13.38;2.33;;;;;;;;;;5019273;28;88917;-67
2022/06/16 12:53:30;;;;;;;9.70;2.10;;;;;;;;;;5027197;28;89376;-67
2022/06/16 12:56:00;;;;;;;6.97;1.77;;;;;;;;;;5017024;28;88137;-67
2022/06/16 12:58:31;;;;;;;9.93;1.90;;;;;;;;;;5020097;28;89440;-67
2022/06/16 13:01:00;;;;;;;7.03;2.45;;;;;;;;;;5018967;28;89696;-67
2022/06/16 13:03:38;;;;;;;10.00;2.60;;;;;;;;;;5038852;27;90110;-67
2022/06/16 13:06:05;;;;;;;7.82;2.10;;;;;;;;;;5026476;27;88453;-67
2022/06/16 13:08:34;;;;;;;2.83;1.60;;;;;;;;;;5021461;28;89446;-63
2022/06/16 13:11:02;;;;;;;5.65;1.95;;;;;;;;;;5013605;28;88068;-65
2022/06/16 13:13:36;;;;;;;8.77;2.90;;;;;;;;;;5026703;28;89783;-66
2022/06/16 13:16:03;;;;;;;6.63;2.00;;;;;;;;;;5019769;28;88841;-66
2022/06/16 13:18:32;;;;;;;3.08;1.65;;;;;;;;;;5030682;28;88204;-66
2022/06/16 13:21:01;;;;;;;13.53;1.77;;;;;;;;;;5030934;28;89387;-65
2022/06/16 13:23:27;;;;;;;3.47;1.88;;;;;;;;;;5006304;28;89347;-67
2022/06/16 13:25:56;;;;;;;5.28;1.80;;;;;;;;;;4999569;28;90697;-64
2022/06/16 13:28:29;;;;;;;9.88;2.17;;;;;;;;;;5004303;28;89639;-69
2022/06/16 13:31:14;;;;;;;8.70;2.42;;;;;;;;;;5041881;27;88640;-67
2022/06/16 13:33:45;;;;;;;7.45;1.83;;;;;;;;;;5012211;28;89350;-69
2022/06/16 13:36:17;;;;;;;14.85;2.22;;;;;;;;;;5028444;27;88883;-69
2022/06/16 13:38:45;;;;;;;12.80;2.30;;;;;;;;;;5018758;28;88019;-69
2022/06/16 13:41:32;;;;;;;4.15;1.75;;;;;;;;;;5018226;28;88660;-69
2022/06/16 13:44:05;;;;;;;6.25;1.73;;;;;;;;;;5024210;27;89052;-69
2022/06/16 13:46:52;;;;;;;14.95;1.98;;;;;;;;;;5019324;28;87720;-69
2022/06/16 13:49:29;;;;;;;16.38;2.22;;;;;;;;;;5034243;28;88114;-68
2022/06/16 13:52:14;;;;;;;20.17;3.42;;;;;;;;;;5016953;27;89404;-69
2022/06/16 13:54:41;;;;;;;18.15;2.78;;;;;;;;;;5014610;27;90554;-67
2022/06/16 13:57:25;;;;;;;19.30;2.67;;;;;;;;;;5017183;28;89100;-68
2022/06/16 13:59:53;;;;;;;10.63;2.25;;;;;;;;;;5018613;28;88409;-70
2022/06/16 14:02:20;;;;;;;6.75;2.40;;;;;;;;;;5021044;28;88691;-67
2022/06/16 14:05:00;;;;;;;19.50;2.53;;;;;;;;;;5020882;27;89157;-64
2022/06/16 14:07:30;;;;;;;12.73;2.33;;;;;;;;;;5019897;28;88716;-65
2022/06/16 14:10:22;;;;;;;9.65;2.17;;;;;;;;;;5012136;27;88486;-64
2022/06/16 14:12:54;;;;;;;9.95;2.25;;;;;;;;;;5011528;28;88887;-65
2022/06/16 14:15:46;;;;;;;9.05;2.00;;;;;;;;;;5021585;28;88043;-65
2022/06/16 14:18:18;;;;;;;8.65;1.92;;;;;;;;;;5022601;28;89128;-66
2022/06/16 14:20:54;;;;;;;9.70;2.08;;;;;;;;;;5016262;28;88797;-65
2022/06/16 14:23:23;;;;;;;6.70;1.80;;;;;;;;;;5019679;28;89329;-62
2022/06/16 14:26:05;;;;;;;6.30;1.80;;;;;;;;;;5003376;28;92557;-67
2022/06/16 14:28:35;;;;;;;12.35;1.85;;;;;;;;;;5017515;28;88024;-63
2022/06/16 14:31:23;;;;;;;5.63;2.05;;;;;;;;;;5024847;28;89174;-65
2022/06/16 14:34:01;;;;;;;8.50;2.10;;;;;;;;;;5009917;28;88906;-65
2022/06/16 14:36:42;;;;;;;9.52;2.00;;;;;;;;;;4998109;28;88074;-65
2022/06/16 14:39:12;;;;;;;12.25;2.30;;;;;;;;;;5036281;27;89678;-65
2022/06/16 14:41:41;;;;;;;4.05;2.00;;;;;;;;;;5020750;27;88132;-66
2022/06/16 14:44:13;;;;;;;6.65;1.90;;;;;;;;;;5010338;28;88809;-65
2022/06/16 14:46:45;;;;;;;5.13;1.92;;;;;;;;;;5015659;28;90870;-66
2022/06/16 14:49:15;;;;;;;3.65;1.80;;;;;;;;;;5034017;28;88942;-65
2022/06/16 14:51:43;;;;;;;10.05;1.95;;;;;;;;;;5016243;27;89539;-65
2022/06/16 14:54:39;;;;;;;7.85;2.08;;;;;;;;;;5016074;28;88919;-66
2022/06/16 14:57:06;;;;;;;5.00;1.70;;;;;;;;;;5013638;28;88733;-64
2022/06/16 14:59:34;;;;;;;4.38;1.73;;;;;;;;;;5011597;28;89196;-66
2022/06/16 15:02:03;;;;;;;11.00;1.90;;;;;;;;;;5035529;28;88853;-65
2022/06/16 15:04:30;;;;;;;4.00;1.97;;;;;;;;;;5036508;27;88331;-66
2022/06/16 15:06:59;;;;;;;9.40;2.17;;;;;;;;;;5022177;27;88649;-66
2022/06/16 15:09:28;;;;;;;5.40;1.95;;;;;;;;;;5017911;28;88766;-65
2022/06/16 15:11:56;;;;;;;4.63;1.60;;;;;;;;;;4998990;28;89480;-65
2022/06/16 15:14:24;;;;;;;2.78;1.73;;;;;;;;;;5017159;28;88882;-66
2022/06/16 15:19:39;;;;;;;8.73;2.30;;;;;;;;;;5004570;28;88821;-65